Time;durP1;ratioP1;P1;durP2;ratioP2;P2;SDS_P1;SDS_P2;PMS_P1;PMS_P2;Temp;Humidity;BMP_temperature;BMP_pressure;BME280_temperature;BME280_humidity;BME280_pressure;Samples;Min_cycle;Max_cycle;Signal;HPM_P1;HPM_P2
2023/04/27 00:01:22;;;;;;;10.52;5.65;;;4.30;99.90;;;;;;5020924;28;20068;-56
2023/04/27 00:03:48;;;;;;;12.02;5.78;;;4.20;99.90;;;;;;5019835;28;20502;-57
2023/04/27 00:06:14;;;;;;;9.38;5.15;;;4.10;99.90;;;;;;5021109;28;20129;-57
2023/04/27 00:08:39;;;;;;;10.48;5.97;;;4.10;99.90;;;;;;5019478;28;20058;-57
2023/04/27 00:11:05;;;;;;;12.50;4.97;;;4.30;99.90;;;;;;5002840;28;20076;-57
2023/04/27 00:13:31;;;;;;;11.43;5.35;;;4.30;99.90;;;;;;5019374;28;20034;-58
2023/04/27 00:15:59;;;;;;;11.10;5.63;;;4.30;99.90;;;;;;5019819;28;20046;-57
2023/04/27 00:18:25;;;;;;;14.98;5.28;;;4.40;99.90;;;;;;5020228;28;20056;-57
2023/04/27 00:20:50;;;;;;;10.35;5.55;;;4.30;99.90;;;;;;5002024;28;20061;-57
2023/04/27 00:23:16;;;;;;;12.45;5.75;;;4.50;99.90;;;;;;5020661;28;20072;-57
2023/04/27 00:25:42;;;;;;;9.43;5.80;;;4.60;99.90;;;;;;5019402;28;20042;-57
2023/04/27 00:28:07;;;;;;;10.43;5.93;;;4.60;99.90;;;;;;5019954;28;20049;-57
2023/04/27 00:30:34;;;;;;;11.88;6.00;;;4.70;99.90;;;;;;5001786;28;20044;-57
2023/04/27 00:33:00;;;;;;;9.02;5.75;;;4.70;99.90;;;;;;5019943;28;20053;-57
2023/04/27 00:35:26;;;;;;;9.65;5.85;;;4.60;99.90;;;;;;5019810;28;20052;-57
2023/04/27 00:37:54;;;;;;;10.40;6.43;;;4.60;99.90;;;;;;5018703;28;20042;-57
2023/04/27 00:40:20;;;;;;;11.10;5.68;;;4.50;99.90;;;;;;5019955;28;20080;-57
2023/04/27 00:42:46;;;;;;;11.15;5.53;;;4.30;99.90;;;;;;5018770;28;20535;-57
2023/04/27 00:45:12;;;;;;;12.82;5.90;;;4.30;99.90;;;;;;5002006;28;20050;-57
2023/04/27 00:47:38;;;;;;;10.32;6.15;;;4.30;99.90;;;;;;5019281;28;20046;-57
2023/04/27 00:50:07;;;;;;;12.13;6.13;;;4.30;99.90;;;;;;5019101;28;20548;-57
2023/04/27 00:52:34;;;;;;;9.70;5.43;;;4.10;99.90;;;;;;5019699;28;20518;-58
2023/04/27 00:55:03;;;;;;;12.10;6.07;;;4.00;99.90;;;;;;5018787;28;20050;-57
2023/04/27 00:57:29;;;;;;;11.23;6.30;;;4.10;99.90;;;;;;5019930;28;20057;-57
2023/04/27 00:59:55;;;;;;;9.10;5.28;;;3.90;99.90;;;;;;5001276;28;20045;-57
2023/04/27 01:02:21;;;;;;;11.93;6.07;;;3.90;99.90;;;;;;5019575;28;20042;-57
2023/04/27 01:04:49;;;;;;;12.07;6.47;;;4.00;99.90;;;;;;5019149;28;20038;-57
2023/04/27 01:07:15;;;;;;;10.35;5.70;;;4.50;99.90;;;;;;5019426;28;20374;-57
2023/04/27 01:09:41;;;;;;;12.32;6.07;;;4.00;99.90;;;;;;5019031;28;20038;-58
2023/04/27 01:12:07;;;;;;;12.85;7.50;;;3.90;99.90;;;;;;5001146;28;20264;-57
2023/04/27 01:14:35;;;;;;;12.27;7.00;;;4.10;99.90;;;;;;5019573;28;20061;-57
2023/04/27 01:17:00;;;;;;;12.43;7.35;;;3.90;99.90;;;;;;5000970;28;20046;-57
2023/04/27 01:19:27;;;;;;;12.50;7.40;;;4.00;99.90;;;;;;5019399;28;20065;-57
2023/04/27 01:21:53;;;;;;;13.73;7.85;;;3.70;99.90;;;;;;5018934;28;20046;-55
2023/04/27 01:24:19;;;;;;;14.27;8.18;;;4.10;99.90;;;;;;5018965;28;20050;-57
2023/04/27 01:26:45;;;;;;;13.02;7.65;;;3.80;99.90;;;;;;5001345;28;20068;-57
2023/04/27 01:29:10;;;;;;;12.77;7.60;;;3.90;99.90;;;;;;5018695;28;20053;-57
2023/04/27 01:31:36;;;;;;;11.98;7.18;;;3.80;99.90;;;;;;5001766;28;20052;-57
2023/04/27 01:34:02;;;;;;;11.00;6.70;;;3.70;99.90;;;;;;5018270;28;20125;-57
2023/04/27 01:36:28;;;;;;;11.23;6.88;;;3.70;99.90;;;;;;5019578;28;20282;-57
2023/04/27 01:38:53;;;;;;;12.32;6.43;;;3.80;99.90;;;;;;5018164;28;20054;-57
2023/04/27 01:41:19;;;;;;;10.10;5.75;;;3.60;99.90;;;;;;5019016;28;20077;-57
2023/04/27 01:43:45;;;;;;;11.32;6.65;;;3.70;99.90;;;;;;5018647;28;20038;-57
2023/04/27 01:46:12;;;;;;;11.98;6.55;;;3.80;99.90;;;;;;5017463;28;20778;-58
2023/04/27 01:48:39;;;;;;;12.60;7.13;;;3.80;99.90;;;;;;5019693;28;20050;-57
2023/04/27 01:51:05;;;;;;;12.77;5.97;;;3.70;99.90;;;;;;5022373;28;20046;-57
2023/04/27 01:53:31;;;;;;;10.77;6.25;;;3.70;99.90;;;;;;5023091;28;20081;-57
2023/04/27 01:56:00;;;;;;;9.85;5.72;;;3.70;99.90;;;;;;5022099;28;20034;-57
2023/04/27 01:58:26;;;;;;;11.18;5.78;;;3.60;99.90;;;;;;5022728;28;20052;-57
2023/04/27 02:00:52;;;;;;;10.18;6.03;;;3.60;99.90;;;;;;5004697;28;20303;-57
2023/04/27 02:03:18;;;;;;;9.60;5.93;;;3.60;99.90;;;;;;5022306;28;20041;-57
2023/04/27 02:05:43;;;;;;;12.00;7.13;;;3.70;99.90;;;;;;5023071;28;20041;-57
2023/04/27 02:08:09;;;;;;;10.90;5.82;;;3.60;99.90;;;;;;5021798;28;20053;-54
2023/04/27 02:10:35;;;;;;;12.45;5.93;;;3.60;99.90;;;;;;5022833;28;20042;-57
2023/04/27 02:13:01;;;;;;;11.35;6.68;;;3.60;99.90;;;;;;5021930;28;20046;-55
2023/04/27 02:15:27;;;;;;;9.77;5.93;;;3.40;99.90;;;;;;5004695;28;20128;-57
2023/04/27 02:17:53;;;;;;;11.65;6.05;;;3.50;99.90;;;;;;5022253;28;20049;-57
2023/04/27 02:20:18;;;;;;;10.52;5.90;;;3.60;99.90;;;;;;5021889;28;20042;-57
2023/04/27 02:22:44;;;;;;;11.35;6.05;;;3.60;99.90;;;;;;5022405;28;20093;-57
2023/04/27 02:25:11;;;;;;;11.32;6.05;;;3.60;99.90;;;;;;5021683;28;20409;-57
2023/04/27 02:27:37;;;;;;;10.65;5.55;;;3.60;99.90;;;;;;5022793;28;20068;-57
2023/04/27 02:30:10;;;;;;;9.50;5.65;;;3.50;99.90;;;;;;5021348;28;20050;-57
2023/04/27 02:32:36;;;;;;;11.35;5.70;;;3.40;99.90;;;;;;5022199;28;20054;-57
2023/04/27 02:35:03;;;;;;;10.55;5.80;;;3.50;99.90;;;;;;5021783;28;20073;-56
2023/04/27 02:37:29;;;;;;;10.55;5.57;;;3.50;99.90;;;;;;5021767;28;20061;-57
2023/04/27 02:39:55;;;;;;;12.75;6.00;;;3.40;99.90;;;;;;5004720;28;20046;-56
2023/04/27 02:42:20;;;;;;;12.07;6.68;;;3.50;99.90;;;;;;5021580;28;20046;-58
2023/04/27 02:44:46;;;;;;;11.95;5.78;;;3.30;99.90;;;;;;5022333;28;20046;-57
2023/04/27 02:47:12;;;;;;;12.45;6.15;;;3.40;99.90;;;;;;5020837;28;20038;-56
2023/04/27 02:49:38;;;;;;;12.98;5.90;;;3.40;99.90;;;;;;5021672;28;20042;-57
2023/04/27 02:52:05;;;;;;;10.77;5.88;;;3.40;99.90;;;;;;5021478;28;20051;-56
2023/04/27 02:54:31;;;;;;;11.02;6.15;;;3.40;99.90;;;;;;5021664;28;20050;-57
2023/04/27 02:56:57;;;;;;;11.63;5.75;;;3.20;99.90;;;;;;5022090;28;20102;-56
2023/04/27 02:59:22;;;;;;;12.15;6.18;;;3.30;99.90;;;;;;5021331;28;20098;-57
2023/04/27 03:01:48;;;;;;;12.60;6.25;;;3.10;99.90;;;;;;5021223;28;20045;-57
2023/04/27 03:04:15;;;;;;;13.82;6.22;;;3.30;99.90;;;;;;5020798;28;20444;-56
2023/04/27 03:06:40;;;;;;;10.30;5.85;;;3.10;99.90;;;;;;5021700;28;20054;-58
2023/04/27 03:09:09;;;;;;;10.48;5.85;;;3.00;99.90;;;;;;5021115;28;20045;-57
2023/04/27 03:11:35;;;;;;;11.57;6.15;;;3.00;99.90;;;;;;5021331;28;20060;-57
2023/04/27 03:14:01;;;;;;;11.60;6.68;;;3.00;99.90;;;;;;5021427;28;20062;-57
2023/04/27 03:16:27;;;;;;;11.48;5.97;;;3.00;99.90;;;;;;5020976;28;20493;-57
2023/04/27 03:18:52;;;;;;;11.52;6.35;;;2.90;99.90;;;;;;5004173;28;20038;-57
2023/04/27 03:21:18;;;;;;;11.75;6.43;;;2.90;99.90;;;;;;5003097;28;20073;-57
2023/04/27 03:23:44;;;;;;;12.38;6.88;;;2.90;99.90;;;;;;5021586;28;20141;-57
2023/04/27 03:26:11;;;;;;;11.95;6.97;;;2.90;99.90;;;;;;5020812;28;20053;-57
2023/04/27 03:28:37;;;;;;;11.65;6.93;;;2.80;99.90;;;;;;5021090;28;20053;-57
2023/04/27 03:31:07;;;;;;;12.70;6.50;;;2.80;99.90;;;;;;5021046;28;20056;-57
2023/04/27 03:33:33;;;;;;;12.75;7.15;;;2.60;99.90;;;;;;5020254;28;20097;-57
2023/04/27 03:35:59;;;;;;;14.98;6.88;;;2.50;99.90;;;;;;5021523;28;20052;-56
2023/04/27 03:38:26;;;;;;;15.85;6.75;;;2.70;99.90;;;;;;5020388;28;20042;-55
2023/04/27 03:40:52;;;;;;;11.50;6.30;;;2.70;99.90;;;;;;5020808;28;20045;-57
2023/04/27 03:43:19;;;;;;;14.73;6.55;;;2.70;99.90;;;;;;5020380;28;20046;-57
2023/04/27 03:45:45;;;;;;;10.77;5.82;;;2.70;99.90;;;;;;5020772;28;20057;-57
2023/04/27 03:48:11;;;;;;;13.60;7.55;;;2.80;99.90;;;;;;5020352;28;20101;-57
2023/04/27 03:50:37;;;;;;;14.60;7.00;;;2.70;99.90;;;;;;5020455;28;20049;-57
2023/04/27 03:53:03;;;;;;;11.48;6.68;;;2.70;99.90;;;;;;5021329;28;20153;-57
2023/04/27 03:55:28;;;;;;;13.18;7.07;;;2.70;99.90;;;;;;5020017;28;20052;-57
2023/04/27 03:57:54;;;;;;;12.07;6.45;;;2.90;99.90;;;;;;5021016;28;20041;-57
2023/04/27 04:00:20;;;;;;;13.15;7.03;;;2.70;99.90;;;;;;5002326;28;20045;-57
2023/04/27 04:02:46;;;;;;;15.07;6.68;;;2.70;99.90;;;;;;5020266;28;20073;-58
2023/04/27 04:05:13;;;;;;;11.95;7.30;;;2.80;99.90;;;;;;5020213;28;20048;-57
2023/04/27 04:07:43;;;;;;;12.30;6.82;;;2.80;99.90;;;;;;5020264;28;20041;-57
2023/04/27 04:10:09;;;;;;;14.75;7.68;;;2.90;99.90;;;;;;5020713;28;20046;-57
2023/04/27 04:12:35;;;;;;;13.93;7.70;;;2.80;99.90;;;;;;5019520;28;20046;-57
2023/04/27 04:15:05;;;;;;;12.70;7.20;;;2.90;99.90;;;;;;5020638;28;20137;-58
2023/04/27 04:17:32;;;;;;;15.15;6.57;;;2.70;99.90;;;;;;5019702;28;20042;-57
2023/04/27 04:19:58;;;;;;;17.48;7.65;;;2.70;99.90;;;;;;5020254;28;20891;-57
2023/04/27 04:22:24;;;;;;;13.77;7.43;;;2.80;99.90;;;;;;5002395;28;20053;-57
2023/04/27 04:24:50;;;;;;;13.45;7.35;;;2.70;99.90;;;;;;5002072;28;20198;-57
2023/04/27 04:27:16;;;;;;;13.93;7.57;;;2.60;99.90;;;;;;5002988;28;20056;-58
2023/04/27 04:29:41;;;;;;;14.30;7.38;;;2.70;99.90;;;;;;5019331;28;20052;-58
2023/04/27 04:32:08;;;;;;;13.95;6.43;;;2.60;99.90;;;;;;5020499;28;20049;-57
2023/04/27 04:34:35;;;;;;;12.95;6.85;;;2.80;99.90;;;;;;5019506;28;20061;-56
2023/04/27 04:37:00;;;;;;;14.63;7.43;;;2.70;99.90;;;;;;5019831;28;20061;-58
2023/04/27 04:39:32;;;;;;;12.18;7.07;;;2.70;99.90;;;;;;5019557;28;20076;-57
2023/04/27 04:41:58;;;;;;;13.63;7.10;;;2.60;99.90;;;;;;5019621;28;20095;-57
2023/04/27 04:44:24;;;;;;;12.95;6.18;;;2.70;99.90;;;;;;5002339;28;20100;-57
2023/04/27 04:46:50;;;;;;;13.43;6.97;;;2.70;99.90;;;;;;5019157;28;20030;-57
2023/04/27 04:49:15;;;;;;;12.88;6.75;;;2.60;99.90;;;;;;5019924;28;20074;-57
2023/04/27 04:51:42;;;;;;;17.15;7.97;;;2.60;99.90;;;;;;5019392;28;20058;-57
2023/04/27 04:54:08;;;;;;;12.00;6.82;;;2.80;99.90;;;;;;5019540;28;20049;-57
2023/04/27 04:56:34;;;;;;;12.85;6.95;;;2.80;99.90;;;;;;5019320;28;20048;-57
2023/04/27 04:59:00;;;;;;;12.27;6.32;;;2.90;99.90;;;;;;5018953;28;20045;-57
2023/04/27 05:01:26;;;;;;;13.80;6.05;;;3.00;99.90;;;;;;5019985;28;20038;-55
2023/04/27 05:03:52;;;;;;;13.88;6.60;;;3.20;99.90;;;;;;5018810;28;20048;-58
2023/04/27 05:06:18;;;;;;;13.05;5.68;;;3.10;99.90;;;;;;5019930;28;20034;-57
2023/04/27 05:08:43;;;;;;;14.05;6.00;;;3.20;99.90;;;;;;5018776;28;20057;-57
2023/04/27 05:11:10;;;;;;;13.38;5.70;;;3.30;99.90;;;;;;5019627;28;20560;-58
2023/04/27 05:13:37;;;;;;;12.05;5.45;;;3.40;99.90;;;;;;5019039;28;20052;-57
2023/04/27 05:16:04;;;;;;;10.07;5.72;;;3.70;99.90;;;;;;5019003;28;20053;-57
2023/04/27 05:18:31;;;;;;;11.15;5.95;;;3.90;99.90;;;;;;5019754;28;20100;-57
2023/04/27 05:20:56;;;;;;;10.40;5.60;;;4.00;99.90;;;;;;5018669;28;20101;-58
2023/04/27 05:23:22;;;;;;;11.82;6.07;;;4.10;99.90;;;;;;5021253;28;20048;-57
2023/04/27 05:25:47;;;;;;;10.48;5.47;;;4.10;99.90;;;;;;5025289;28;20053;-58
2023/04/27 05:28:13;;;;;;;11.95;5.00;;;4.10;99.90;;;;;;5025648;28;20056;-58
2023/04/27 05:30:39;;;;;;;10.27;5.05;;;4.10;99.90;;;;;;5025591;28;20081;-57
2023/04/27 05:33:05;;;;;;;12.25;6.10;;;4.20;99.90;;;;;;5025697;28;20046;-57
2023/04/27 05:35:31;;;;;;;11.15;5.82;;;4.20;99.90;;;;;;5025966;28;20053;-57
2023/04/27 05:37:57;;;;;;;14.02;5.75;;;4.30;99.90;;;;;;5025047;28;20660;-55
2023/04/27 05:40:23;;;;;;;12.57;5.97;;;4.30;99.90;;;;;;5008349;28;20079;-58
2023/04/27 05:42:49;;;;;;;11.85;6.40;;;4.50;99.90;;;;;;5024950;28;20042;-57
2023/04/27 05:45:15;;;;;;;10.07;5.32;;;4.40;99.90;;;;;;5025785;28;20041;-57
2023/04/27 05:47:41;;;;;;;11.82;5.25;;;4.50;99.90;;;;;;5025363;28;20057;-57
2023/04/27 05:50:07;;;;;;;12.73;5.13;;;4.60;99.90;;;;;;5022080;28;20928;-57
2023/04/27 05:52:33;;;;;;;10.98;5.00;;;4.40;99.90;;;;;;5022430;28;20091;-57
2023/04/27 05:54:59;;;;;;;11.73;5.05;;;4.30;99.90;;;;;;5021766;28;20152;-57
2023/04/27 05:57:25;;;;;;;10.32;4.80;;;4.20;99.90;;;;;;5022694;28;20061;-57
2023/04/27 05:59:52;;;;;;;10.43;5.05;;;4.20;99.90;;;;;;5021597;28;20037;-57
2023/04/27 06:02:18;;;;;;;11.95;4.80;;;4.30;99.90;;;;;;5022117;28;20096;-57
2023/04/27 06:04:45;;;;;;;9.85;4.45;;;4.60;99.90;;;;;;5004131;28;20054;-57
2023/04/27 06:07:12;;;;;;;9.30;4.88;;;4.50;99.90;;;;;;5022121;28;20073;-57
2023/04/27 06:09:38;;;;;;;9.82;4.82;;;4.70;99.90;;;;;;5021937;28;20122;-57
2023/04/27 06:12:05;;;;;;;10.55;5.15;;;4.80;99.90;;;;;;5021339;28;20093;-58
2023/04/27 06:14:31;;;;;;;10.98;4.82;;;4.90;99.90;;;;;;5024231;28;20092;-57
2023/04/27 06:16:57;;;;;;;10.85;4.07;;;5.00;99.90;;;;;;5024547;28;20053;-57
2023/04/27 06:19:22;;;;;;;9.30;4.80;;;5.00;99.90;;;;;;5024820;28;20072;-57
2023/04/27 06:21:49;;;;;;;10.85;5.10;;;5.00;99.90;;;;;;5024114;28;20068;-58
2023/04/27 06:24:15;;;;;;;9.88;4.82;;;5.20;99.90;;;;;;5024615;28;20092;-57
2023/04/27 06:26:41;;;;;;;9.48;4.60;;;5.30;99.90;;;;;;5025403;28;20097;-57
2023/04/27 06:29:07;;;;;;;10.80;4.00;;;5.40;99.90;;;;;;5024871;28;20354;-57
2023/04/27 06:31:33;;;;;;;10.20;4.65;;;5.80;99.90;;;;;;5025810;28;20073;-58
2023/04/27 06:33:59;;;;;;;10.27;4.82;;;5.80;99.90;;;;;;5024637;28;20596;-57
2023/04/27 06:36:26;;;;;;;10.95;4.88;;;5.80;99.90;;;;;;5022677;28;20053;-57
2023/04/27 06:38:55;;;;;;;12.75;4.57;;;5.90;99.90;;;;;;5003540;28;20065;-57
2023/04/27 06:41:22;;;;;;;14.18;5.40;;;6.00;99.90;;;;;;5022002;28;20034;-57
2023/04/27 06:43:47;;;;;;;11.07;4.70;;;6.10;99.90;;;;;;5004552;28;20046;-58
2023/04/27 06:46:13;;;;;;;9.40;4.68;;;6.20;99.90;;;;;;5021803;28;20048;-58
2023/04/27 06:48:40;;;;;;;9.93;4.43;;;6.40;99.90;;;;;;5022143;28;20061;-57
2023/04/27 06:51:06;;;;;;;10.55;4.82;;;6.40;99.90;;;;;;5020990;28;20362;-57
2023/04/27 06:53:32;;;;;;;7.47;4.47;;;6.60;99.90;;;;;;5037123;28;20053;-58
2023/04/27 06:55:58;;;;;;;9.27;4.20;;;6.80;99.90;;;;;;5021359;28;20120;-58
2023/04/27 06:58:23;;;;;;;9.38;4.43;;;6.70;99.90;;;;;;5021841;28;20077;-57
2023/04/27 07:00:49;;;;;;;7.95;3.97;;;6.80;99.90;;;;;;5021666;28;20085;-56
2023/04/27 07:03:15;;;;;;;8.13;3.83;;;6.80;99.90;;;;;;5019266;28;20045;-58
2023/04/27 07:05:41;;;;;;;8.90;3.72;;;6.90;99.90;;;;;;5018557;28;20050;-57
2023/04/27 07:08:07;;;;;;;11.27;4.40;;;6.90;99.90;;;;;;5017454;28;20049;-57
2023/04/27 07:10:33;;;;;;;7.53;3.75;;;7.00;99.90;;;;;;5000913;28;20038;-57
2023/04/27 07:12:58;;;;;;;8.30;3.80;;;7.10;99.90;;;;;;5017562;28;20057;-58
2023/04/27 07:15:24;;;;;;;7.22;3.67;;;7.30;99.90;;;;;;5017543;28;20053;-58
2023/04/27 07:17:54;;;;;;;7.72;3.92;;;7.40;99.90;;;;;;5017996;28;20053;-58
2023/04/27 07:20:20;;;;;;;8.90;3.40;;;7.50;99.90;;;;;;5017972;28;20653;-57
2023/04/27 07:22:46;;;;;;;7.43;3.40;;;7.60;99.90;;;;;;5018021;28;20688;-57
2023/04/27 07:25:12;;;;;;;7.55;3.38;;;7.70;99.90;;;;;;5016849;28;20050;-57
2023/04/27 07:27:38;;;;;;;12.43;3.67;;;7.60;99.90;;;;;;5017935;28;20402;-57
2023/04/27 07:30:08;;;;;;;8.50;3.92;;;7.60;99.90;;;;;;5016500;28;20053;-57
2023/04/27 07:32:36;;;;;;;6.57;3.50;;;7.70;99.90;;;;;;5016944;28;20058;-58
2023/04/27 07:35:02;;;;;;;9.20;3.60;;;7.90;99.90;;;;;;5016428;28;20050;-56
2023/04/27 07:37:28;;;;;;;7.93;3.22;;;7.80;99.90;;;;;;5016727;28;20260;-57
2023/04/27 07:39:54;;;;;;;6.65;3.20;;;7.80;99.90;;;;;;5015983;28;20041;-57
2023/04/27 07:42:23;;;;;;;10.20;3.15;;;7.70;99.90;;;;;;5015819;28;20053;-58
2023/04/27 07:44:49;;;;;;;8.00;3.40;;;7.70;99.90;;;;;;5016934;28;20117;-58
2023/04/27 07:47:17;;;;;;;5.97;2.80;;;7.70;99.90;;;;;;5015753;28;20065;-58
2023/04/27 07:49:46;;;;;;;7.55;3.10;;;7.70;99.90;;;;;;5015352;28;20050;-57
2023/04/27 07:52:13;;;;;;;7.05;3.00;;;7.90;99.90;;;;;;5012674;28;20106;-58
2023/04/27 07:54:39;;;;;;;6.75;3.00;;;8.20;99.90;;;;;;5015982;28;20053;-57
2023/04/27 07:57:11;;;;;;;6.75;3.15;;;8.20;99.90;;;;;;5017179;28;20042;-57
2023/04/27 07:59:38;;;;;;;5.70;2.75;;;8.10;99.90;;;;;;5016016;28;20132;-58
2023/04/27 08:02:04;;;;;;;8.55;2.88;;;8.30;99.90;;;;;;5017045;28;20057;-57
2023/04/27 08:04:30;;;;;;;6.65;2.90;;;8.20;99.90;;;;;;4997860;28;20049;-58
2023/04/27 08:06:55;;;;;;;5.80;2.22;;;8.30;99.90;;;;;;5016588;28;20049;-57
2023/04/27 08:09:21;;;;;;;7.25;2.72;;;8.40;99.90;;;;;;5016369;28;20046;-57
2023/04/27 08:11:47;;;;;;;8.60;2.58;;;8.40;99.90;;;;;;5016381;28;20042;-57
2023/04/27 08:14:12;;;;;;;5.47;2.47;;;8.30;99.90;;;;;;5016857;28;20057;-58
2023/04/27 08:16:42;;;;;;;7.68;3.10;;;8.40;99.90;;;;;;5014329;28;20064;-58
2023/04/27 08:19:08;;;;;;;6.65;2.28;;;8.50;99.90;;;;;;5016743;28;20056;-57
2023/04/27 08:21:37;;;;;;;7.10;2.88;;;8.50;99.90;;;;;;5015791;28;20038;-56
2023/04/27 08:24:05;;;;;;;7.97;3.78;;;8.90;99.90;;;;;;5016174;28;20092;-58
2023/04/27 08:26:31;;;;;;;7.00;2.38;;;8.80;99.90;;;;;;5015885;28;20058;-58
2023/04/27 08:28:58;;;;;;;6.00;2.50;;;9.00;99.90;;;;;;5015473;28;20117;-57
2023/04/27 08:31:25;;;;;;;6.95;2.72;;;8.80;99.90;;;;;;4998398;28;20049;-57
2023/04/27 08:33:51;;;;;;;9.70;2.50;;;8.80;99.90;;;;;;5015223;28;20053;-57
2023/04/27 08:36:18;;;;;;;6.13;2.72;;;9.00;99.90;;;;;;5016387;28;20041;-58
2023/04/27 08:38:43;;;;;;;6.22;2.55;;;9.10;99.90;;;;;;4997330;28;20653;-58
2023/04/27 08:41:09;;;;;;;6.70;2.13;;;9.30;99.90;;;;;;5015390;28;20085;-58
2023/04/27 08:43:35;;;;;;;5.95;2.97;;;9.40;99.90;;;;;;5015835;28;20046;-58
2023/04/27 08:46:01;;;;;;;7.38;3.00;;;9.50;99.90;;;;;;5015239;28;20053;-59
2023/04/27 08:48:27;;;;;;;9.60;2.78;;;9.70;99.90;;;;;;5015981;28;20375;-59
2023/04/27 08:50:56;;;;;;;6.07;2.95;;;9.60;99.90;;;;;;5014462;28;20121;-56
2023/04/27 08:53:22;;;;;;;7.82;2.92;;;9.70;99.90;;;;;;5016070;28;20049;-56
2023/04/27 08:55:51;;;;;;;9.90;3.17;;;9.90;99.90;;;;;;5015024;28;20050;-56
2023/04/27 08:58:17;;;;;;;5.57;2.38;;;9.80;99.90;;;;;;5014969;28;20060;-56
2023/04/27 09:00:44;;;;;;;6.28;2.65;;;9.80;99.90;;;;;;5015391;28;20037;-56
2023/04/27 09:03:23;;;;;;;6.95;2.55;;;9.60;99.90;;;;;;5013973;28;20149;-56
2023/04/27 09:05:49;;;;;;;7.05;3.17;;;9.50;99.90;;;;;;5014341;28;20165;-56
2023/04/27 09:08:15;;;;;;;6.82;3.50;;;9.70;99.90;;;;;;5013843;28;20072;-56
2023/04/27 09:10:48;;;;;;;5.32;2.60;;;9.70;99.90;;;;;;5015166;28;20412;-57
2023/04/27 09:13:15;;;;;;;5.60;2.83;;;9.60;99.90;;;;;;4996608;28;20050;-56
2023/04/27 09:15:42;;;;;;;7.57;3.00;;;9.90;99.90;;;;;;5008462;28;20072;-57
2023/04/27 09:18:19;;;;;;;7.32;3.30;;;10.20;99.90;;;;;;5015068;28;20076;-57
2023/04/27 09:20:51;;;;;;;7.30;2.63;;;10.30;99.90;;;;;;5010544;28;20036;-57
2023/04/27 09:23:26;;;;;;;7.97;2.75;;;10.50;99.90;;;;;;5013396;28;20050;-60
2023/04/27 09:25:54;;;;;;;7.25;2.90;;;10.30;99.90;;;;;;5014524;28;20057;-57
2023/04/27 09:28:20;;;;;;;7.75;3.13;;;10.30;99.90;;;;;;5014110;28;20305;-58
2023/04/27 09:30:53;;;;;;;8.07;3.55;;;10.30;99.90;;;;;;5016933;28;20069;-58
2023/04/27 09:33:30;;;;;;;6.50;3.30;;;10.10;99.90;;;;;;5018335;28;20058;-58
2023/04/27 09:36:02;;;;;;;10.55;3.72;;;10.50;99.90;;;;;;5018851;28;20381;-58
2023/04/27 09:38:28;;;;;;;8.55;3.15;;;10.60;99.90;;;;;;5000352;28;20046;-58
2023/04/27 09:40:56;;;;;;;7.35;3.20;;;10.50;99.90;;;;;;5018750;28;20072;-57
2023/04/27 09:43:23;;;;;;;6.50;3.13;;;10.70;99.90;;;;;;5018792;28;20479;-57
2023/04/27 09:45:49;;;;;;;7.72;3.78;;;10.80;99.90;;;;;;5018896;28;20034;-58
2023/04/27 09:48:16;;;;;;;7.68;3.22;;;10.70;99.90;;;;;;5019131;28;20049;-57
2023/04/27 09:50:43;;;;;;;7.75;3.35;;;10.50;99.90;;;;;;5018321;28;20092;-57
2023/04/27 09:53:18;;;;;;;6.65;3.28;;;10.50;99.90;;;;;;5019610;28;20042;-58
2023/04/27 09:56:30;;;;;;;8.32;3.65;;;10.50;99.90;;;;;;5018440;28;20084;-58
2023/04/27 09:59:26;;;;;;;8.10;3.45;;;10.50;99.90;;;;;;4994377;28;20699;-58
2023/04/27 10:01:55;;;;;;;7.72;3.42;;;10.40;99.90;;;;;;5019446;28;20046;-57
2023/04/27 10:04:36;;;;;;;9.15;3.75;;;10.60;99.90;;;;;;5018346;28;20049;-57
2023/04/27 10:07:06;;;;;;;11.80;3.83;;;10.30;99.90;;;;;;5018668;28;20045;-57
2023/04/27 10:09:45;;;;;;;8.38;3.97;;;10.40;99.90;;;;;;5018855;28;20161;-57
2023/04/27 10:12:31;;;;;;;7.90;3.58;;;10.40;99.90;;;;;;5004205;28;20049;-58
2023/04/27 10:14:59;;;;;;;7.55;3.97;;;10.70;99.90;;;;;;5022589;28;20056;-57
2023/04/27 10:17:33;;;;;;;8.98;4.25;;;10.80;99.90;;;;;;5022161;28;20042;-57
2023/04/27 10:20:01;;;;;;;8.13;3.90;;;10.80;99.90;;;;;;5022396;28;20118;-57
2023/04/27 10:22:40;;;;;;;8.60;4.10;;;10.60;99.80;;;;;;5022519;28;20067;-58
2023/04/27 10:25:39;;;;;;;9.10;4.13;;;10.70;99.90;;;;;;5021466;28;20065;-54
2023/04/27 10:28:06;;;;;;;7.93;4.43;;;10.70;99.50;;;;;;5021833;28;20038;-58
2023/04/27 10:30:37;;;;;;;9.13;4.40;;;10.90;99.90;;;;;;5021956;28;20049;-58
2023/04/27 10:33:08;;;;;;;9.52;4.50;;;11.00;99.90;;;;;;5021887;28;20405;-58
2023/04/27 10:35:40;;;;;;;8.73;4.63;;;10.60;99.20;;;;;;5022614;28;20084;-57
2023/04/27 10:38:18;;;;;;;8.95;3.83;;;10.70;99.90;;;;;;5021218;28;20081;-54
2023/04/27 10:40:45;;;;;;;8.00;3.83;;;11.00;99.90;;;;;;5021781;28;20042;-58
2023/04/27 10:43:13;;;;;;;8.43;3.95;;;11.40;99.90;;;;;;5002924;28;20168;-57
2023/04/27 10:45:40;;;;;;;10.02;4.03;;;11.30;99.10;;;;;;5019292;28;20041;-58
2023/04/27 10:48:06;;;;;;;10.45;4.35;;;11.70;99.80;;;;;;5017152;28;20046;-57
2023/04/27 10:50:32;;;;;;;8.88;4.50;;;11.30;97.90;;;;;;5017142;28;20068;-57
2023/04/27 10:53:03;;;;;;;9.80;4.65;;;11.60;99.10;;;;;;5017418;28;20084;-57
2023/04/27 10:55:32;;;;;;;9.65;4.63;;;11.10;98.60;;;;;;5015976;28;20437;-57
2023/04/27 10:57:58;;;;;;;9.70;4.28;;;11.00;99.40;;;;;;5017826;28;20066;-57
2023/04/27 11:00:27;;;;;;;8.27;4.45;;;11.00;99.50;;;;;;5017451;28;20042;-58
2023/04/27 11:02:54;;;;;;;9.48;5.05;;;10.70;99.90;;;;;;5017808;28;20073;-58
2023/04/27 11:05:23;;;;;;;9.88;4.70;;;10.80;99.70;;;;;;5017051;28;20115;-58
2023/04/27 11:07:50;;;;;;;11.85;4.97;;;10.80;99.90;;;;;;5023340;28;20232;-58
2023/04/27 11:10:19;;;;;;;14.32;5.78;;;10.70;99.90;;;;;;5017468;28;20519;-58
2023/04/27 11:12:45;;;;;;;10.82;4.78;;;10.70;99.40;;;;;;5014441;28;20072;-59
2023/04/27 11:15:12;;;;;;;11.30;5.57;;;10.70;99.90;;;;;;5017117;28;20041;-59
2023/04/27 11:17:39;;;;;;;9.18;4.97;;;10.70;99.90;;;;;;5015979;28;20101;-57
2023/04/27 11:20:07;;;;;;;8.63;4.68;;;10.50;99.90;;;;;;5016672;28;20058;-57
2023/04/27 11:22:33;;;;;;;9.95;5.00;;;10.40;99.90;;;;;;5016375;28;20065;-57
2023/04/27 11:25:00;;;;;;;10.48;5.10;;;10.20;99.90;;;;;;5015975;28;20049;-57
2023/04/27 11:27:39;;;;;;;11.77;4.95;;;10.10;99.90;;;;;;5015813;28;20050;-57
2023/04/27 11:30:06;;;;;;;9.98;5.10;;;10.10;99.60;;;;;;5016438;28;20046;-57
2023/04/27 11:32:32;;;;;;;9.43;5.10;;;10.10;99.90;;;;;;5016540;28;20069;-57
2023/04/27 11:34:58;;;;;;;10.85;5.30;;;10.00;99.90;;;;;;5031846;28;20080;-58
2023/04/27 11:37:26;;;;;;;9.60;4.68;;;9.90;99.90;;;;;;5016036;28;20046;-57
2023/04/27 11:39:53;;;;;;;8.73;4.47;;;10.00;99.90;;;;;;5017234;28;20085;-57
2023/04/27 11:42:24;;;;;;;8.98;4.97;;;9.90;99.90;;;;;;5015741;28;20046;-57
2023/04/27 11:45:00;;;;;;;8.93;4.70;;;9.80;99.90;;;;;;5016974;28;20066;-57
2023/04/27 11:47:31;;;;;;;8.90;4.30;;;9.70;99.90;;;;;;5016706;28;20034;-58
2023/04/27 11:50:06;;;;;;;11.30;4.15;;;9.70;99.90;;;;;;5016130;28;20046;-57
2023/04/27 11:52:33;;;;;;;10.27;4.30;;;9.70;99.90;;;;;;5016397;28;20497;-57
2023/04/27 11:55:00;;;;;;;9.57;3.67;;;9.60;99.90;;;;;;4998135;28;20061;-55
2023/04/27 11:57:29;;;;;;;7.85;3.78;;;9.60;99.90;;;;;;5017349;28;20060;-57
2023/04/27 12:00:00;;;;;;;7.63;3.25;;;9.50;99.90;;;;;;5015765;28;20109;-57
2023/04/27 12:02:30;;;;;;;7.13;3.20;;;9.30;99.90;;;;;;4997950;28;20038;-57
2023/04/27 12:04:57;;;;;;;7.38;3.80;;;9.20;99.90;;;;;;5016276;28;20124;-57
2023/04/27 12:07:23;;;;;;;7.60;3.75;;;9.10;99.90;;;;;;5016219;28;20408;-58
2023/04/27 12:09:49;;;;;;;10.00;4.00;;;9.20;99.90;;;;;;5016103;28;20159;-57
2023/04/27 12:12:21;;;;;;;7.25;3.75;;;9.30;99.90;;;;;;5015554;28;20042;-57
2023/04/27 12:14:47;;;;;;;10.52;3.72;;;9.60;99.90;;;;;;5016479;28;20057;-58
2023/04/27 12:17:13;;;;;;;7.07;3.80;;;9.70;99.90;;;;;;4997943;28;20505;-56
2023/04/27 12:19:38;;;;;;;8.32;3.63;;;9.70;99.90;;;;;;5016086;28;20042;-57
2023/04/27 12:22:04;;;;;;;9.43;4.18;;;10.00;99.90;;;;;;5016211;28;20038;-56
2023/04/27 12:24:31;;;;;;;9.57;4.28;;;10.10;99.90;;;;;;5015909;28;20045;-57
2023/04/27 12:26:56;;;;;;;10.52;4.90;;;10.20;99.90;;;;;;5015549;28;20069;-56
2023/04/27 12:29:23;;;;;;;7.72;4.22;;;10.00;99.90;;;;;;5014789;28;20042;-57
2023/04/27 12:31:50;;;;;;;9.45;4.95;;;9.90;99.90;;;;;;5016705;28;20050;-57
2023/04/27 12:34:16;;;;;;;8.55;4.57;;;10.40;99.90;;;;;;5015145;28;20134;-57
2023/04/27 12:36:41;;;;;;;7.78;4.07;;;10.70;99.90;;;;;;5015859;28;20041;-57
2023/04/27 12:39:18;;;;;;;8.65;4.20;;;10.70;99.90;;;;;;5015753;28;20048;-57
2023/04/27 12:41:45;;;;;;;9.52;4.57;;;10.70;99.90;;;;;;5017437;28;20056;-57
2023/04/27 12:44:12;;;;;;;7.63;3.75;;;10.70;99.90;;;;;;5020078;28;20104;-57
2023/04/27 12:46:42;;;;;;;10.18;3.85;;;11.10;99.90;;;;;;5001479;28;20041;-57
2023/04/27 12:49:08;;;;;;;8.63;3.78;;;11.30;99.90;;;;;;5019814;28;20058;-57
2023/04/27 12:51:35;;;;;;;9.57;4.47;;;11.20;99.90;;;;;;5019008;28;20301;-57